sensor_id;sensor_type;location;lat;lon;timestamp;pressure;altitude;pressure_sealevel;temperature;humidity
69630;BME280;56857;52.212;5.496;2023-02-19T00:01:32;101763.56;;;9.90;100.00
69630;BME280;56857;52.212;5.496;2023-02-19T00:04:01;101762.72;;;9.90;100.00
69630;BME280;56857;52.212;5.496;2023-02-19T00:06:29;101763.56;;;9.90;100.00
69630;BME280;56857;52.212;5.496;2023-02-19T00:08:55;101761.03;;;9.89;100.00
69630;BME280;56857;52.212;5.496;2023-02-19T00:11:23;101764.69;;;9.88;100.00
69630;BME280;56857;52.212;5.496;2023-02-19T00:13:50;101766.34;;;9.89;100.00
69630;BME280;56857;52.212;5.496;2023-02-19T00:16:17;101757.56;;;9.88;100.00
69630;BME280;56857;52.212;5.496;2023-02-19T00:18:44;101763.00;;;9.87;100.00
69630;BME280;56857;52.212;5.496;2023-02-19T00:21:10;101767.31;;;9.88;100.00
69630;BME280;56857;52.212;5.496;2023-02-19T00:23:36;101765.78;;;9.85;100.00
69630;BME280;56857;52.212;5.496;2023-02-19T00:26:09;101764.25;;;9.83;100.00
69630;BME280;56857;52.212;5.496;2023-02-19T00:28:35;101764.25;;;9.83;100.00
69630;BME280;56857;52.212;5.496;2023-02-19T00:31:06;101772.19;;;9.83;100.00
69630;BME280;56857;52.212;5.496;2023-02-19T00:33:32;101780.16;;;9.83;100.00
69630;BME280;56857;52.212;5.496;2023-02-19T00:36:01;101773.03;;;9.83;100.00
69630;BME280;56857;52.212;5.496;2023-02-19T00:38:27;101776.66;;;9.82;100.00
69630;BME280;56857;52.212;5.496;2023-02-19T00:40:53;101772.34;;;9.81;100.00
69630;BME280;56857;52.212;5.496;2023-02-19T00:43:18;101779.31;;;9.82;100.00
69630;BME280;56857;52.212;5.496;2023-02-19T00:45:43;101774.16;;;9.81;100.00
69630;BME280;56857;52.212;5.496;2023-02-19T00:48:08;101776.66;;;9.82;100.00
69630;BME280;56857;52.212;5.496;2023-02-19T00:50:34;101778.31;;;9.83;100.00
69630;BME280;56857;52.212;5.496;2023-02-19T00:52:59;101775.69;;;9.83;100.00
69630;BME280;56857;52.212;5.496;2023-02-19T00:55:26;101774.84;;;9.83;100.00
69630;BME280;56857;52.212;5.496;2023-02-19T00:57:51;101776.53;;;9.84;100.00
69630;BME280;56857;52.212;5.496;2023-02-19T01:02:46;101780.97;;;9.83;100.00
69630;BME280;56857;52.212;5.496;2023-02-19T01:05:11;101780.84;;;9.85;100.00
69630;BME280;56857;52.212;5.496;2023-02-19T01:07:37;101788.09;;;9.83;100.00
69630;BME280;56857;52.212;5.496;2023-02-19T01:10:04;101786.44;;;9.82;100.00
69630;BME280;56857;52.212;5.496;2023-02-19T01:12:29;101781.13;;;9.82;100.00
69630;BME280;56857;52.212;5.496;2023-02-19T01:14:54;101793.53;;;9.81;100.00
69630;BME280;56857;52.212;5.496;2023-02-19T01:17:20;101798.00;;;9.81;100.00
69630;BME280;56857;52.212;5.496;2023-02-19T01:19:45;101789.34;;;9.79;100.00
69630;BME280;56857;52.212;5.496;2023-02-19T01:22:11;101790.34;;;9.78;100.00
69630;BME280;56857;52.212;5.496;2023-02-19T01:24:36;101797.28;;;9.79;100.00
69630;BME280;56857;52.212;5.496;2023-02-19T01:27:02;101798.13;;;9.79;100.00
69630;BME280;56857;52.212;5.496;2023-02-19T01:29:27;101801.59;;;9.80;100.00
69630;BME280;56857;52.212;5.496;2023-02-19T01:31:52;101799.13;;;9.78;100.00
69630;BME280;56857;52.212;5.496;2023-02-19T01:34:18;101801.75;;;9.78;100.00
69630;BME280;56857;52.212;5.496;2023-02-19T01:36:43;101803.59;;;9.78;100.00
69630;BME280;56857;52.212;5.496;2023-02-19T01:39:09;101809.00;;;9.76;100.00
69630;BME280;56857;52.212;5.496;2023-02-19T01:41:37;101809.00;;;9.76;100.00
69630;BME280;56857;52.212;5.496;2023-02-19T01:44:04;101806.34;;;9.76;100.00
69630;BME280;56857;52.212;5.496;2023-02-19T01:46:32;101802.88;;;9.75;100.00
69630;BME280;56857;52.212;5.496;2023-02-19T01:51:32;101802.03;;;9.75;100.00
69630;BME280;56857;52.212;5.496;2023-02-19T01:53:59;101804.69;;;9.75;100.00
69630;BME280;56857;52.212;5.496;2023-02-19T01:56:26;101804.81;;;9.73;100.00
69630;BME280;56857;52.212;5.496;2023-02-19T01:58:52;101812.09;;;9.71;100.00
69630;BME280;56857;52.212;5.496;2023-02-19T02:01:18;101802.44;;;9.70;100.00
69630;BME280;56857;52.212;5.496;2023-02-19T02:03:45;101805.09;;;9.70;100.00
69630;BME280;56857;52.212;5.496;2023-02-19T02:06:19;101806.78;;;9.71;100.00
69630;BME280;56857;52.212;5.496;2023-02-19T02:08:46;101804.97;;;9.72;100.00
69630;BME280;56857;52.212;5.496;2023-02-19T02:11:11;101801.50;;;9.71;100.00
69630;BME280;56857;52.212;5.496;2023-02-19T02:13:37;101805.25;;;9.69;100.00
69630;BME280;56857;52.212;5.496;2023-02-19T02:21:41;101811.94;;;9.63;100.00
69630;BME280;56857;52.212;5.496;2023-02-19T02:24:23;101811.09;;;9.63;100.00
69630;BME280;56857;52.212;5.496;2023-02-19T02:32:30;101810.66;;;9.58;100.00
69630;BME280;56857;52.212;5.496;2023-02-19T02:35:05;101817.06;;;9.55;100.00
69630;BME280;56857;52.212;5.496;2023-02-19T02:37:34;101825.00;;;9.55;100.00
69630;BME280;56857;52.212;5.496;2023-02-19T02:40:01;101816.50;;;9.51;100.00
69630;BME280;56857;52.212;5.496;2023-02-19T02:42:27;101820.16;;;9.50;100.00
69630;BME280;56857;52.212;5.496;2023-02-19T02:44:54;101830.88;;;9.49;100.00
69630;BME280;56857;52.212;5.496;2023-02-19T02:47:19;101824.06;;;9.46;100.00
69630;BME280;56857;52.212;5.496;2023-02-19T02:49:45;101825.00;;;9.45;100.00
69630;BME280;56857;52.212;5.496;2023-02-19T02:52:11;101825.88;;;9.46;100.00
69630;BME280;56857;52.212;5.496;2023-02-19T02:54:36;101828.63;;;9.44;100.00
69630;BME280;56857;52.212;5.496;2023-02-19T02:57:01;101835.75;;;9.44;100.00
69630;BME280;56857;52.212;5.496;2023-02-19T02:59:31;101836.56;;;9.44;100.00
69630;BME280;56857;52.212;5.496;2023-02-19T03:04:49;101832.28;;;9.43;100.00
69630;BME280;56857;52.212;5.496;2023-02-19T03:07:16;101833.09;;;9.44;100.00
69630;BME280;56857;52.212;5.496;2023-02-19T03:09:42;101823.22;;;9.46;100.00
69630;BME280;56857;52.212;5.496;2023-02-19T03:12:13;101832.00;;;9.46;100.00
69630;BME280;56857;52.212;5.496;2023-02-19T03:14:43;101837.28;;;9.46;100.00
69630;BME280;56857;52.212;5.496;2023-02-19T03:17:18;101843.41;;;9.47;100.00
69630;BME280;56857;52.212;5.496;2023-02-19T03:19:49;101840.88;;;9.45;100.00
69630;BME280;56857;52.212;5.496;2023-02-19T03:22:22;101846.06;;;9.47;100.00
69630;BME280;56857;52.212;5.496;2023-02-19T03:24:55;101842.59;;;9.46;100.00
69630;BME280;56857;52.212;5.496;2023-02-19T03:27:25;101851.19;;;9.48;100.00
69630;BME280;56857;52.212;5.496;2023-02-19T03:29:53;101850.53;;;9.46;100.00
69630;BME280;56857;52.212;5.496;2023-02-19T03:32:28;101844.41;;;9.46;100.00
69630;BME280;56857;52.212;5.496;2023-02-19T03:35:02;101854.84;;;9.47;100.00
69630;BME280;56857;52.212;5.496;2023-02-19T03:37:34;101855.94;;;9.45;100.00
69630;BME280;56857;52.212;5.496;2023-02-19T03:40:01;101862.06;;;9.45;100.00
69630;BME280;56857;52.212;5.496;2023-02-19T03:42:35;101860.56;;;9.43;100.00
69630;BME280;56857;52.212;5.496;2023-02-19T03:45:26;101865.84;;;9.43;100.00
69630;BME280;56857;52.212;5.496;2023-02-19T03:53:52;101872.25;;;9.40;100.00
69630;BME280;56857;52.212;5.496;2023-02-19T03:56:52;101875.16;;;9.37;100.00
69630;BME280;56857;52.212;5.496;2023-02-19T04:02:07;101887.00;;;9.33;100.00
69630;BME280;56857;52.212;5.496;2023-02-19T04:04:51;101888.09;;;9.31;100.00
69630;BME280;56857;52.212;5.496;2023-02-19T04:07:21;101887.00;;;9.33;100.00
69630;BME280;56857;52.212;5.496;2023-02-19T04:09:48;101893.25;;;9.32;100.00
69630;BME280;56857;52.212;5.496;2023-02-19T04:12:17;101900.22;;;9.33;100.00
69630;BME280;56857;52.212;5.496;2023-02-19T04:14:56;101899.25;;;9.34;100.00
69630;BME280;56857;52.212;5.496;2023-02-19T04:17:28;101900.78;;;9.37;100.00
69630;BME280;56857;52.212;5.496;2023-02-19T04:19:58;101904.53;;;9.34;100.00
69630;BME280;56857;52.212;5.496;2023-02-19T04:22:26;101910.66;;;9.35;100.00
69630;BME280;56857;52.212;5.496;2023-02-19T04:24:53;101899.91;;;9.36;100.00
69630;BME280;56857;52.212;5.496;2023-02-19T04:27:19;101912.31;;;9.36;100.00
69630;BME280;56857;52.212;5.496;2023-02-19T04:29:45;101908.72;;;9.37;100.00
69630;BME280;56857;52.212;5.496;2023-02-19T04:32:11;101923.75;;;9.36;100.00
69630;BME280;56857;52.212;5.496;2023-02-19T04:34:36;101918.44;;;9.36;100.00
69630;BME280;56857;52.212;5.496;2023-02-19T04:37:02;101915.81;;;9.36;100.00
69630;BME280;56857;52.212;5.496;2023-02-19T04:39:27;101930.84;;;9.36;100.00
69630;BME280;56857;52.212;5.496;2023-02-19T04:41:53;101939.06;;;9.33;100.00
69630;BME280;56857;52.212;5.496;2023-02-19T04:44:18;101945.31;;;9.32;100.00
69630;BME280;56857;52.212;5.496;2023-02-19T04:46:44;101948.81;;;9.32;100.00
69630;BME280;56857;52.212;5.496;2023-02-19T04:49:09;101950.88;;;9.28;100.00
69630;BME280;56857;52.212;5.496;2023-02-19T04:51:35;101958.81;;;9.28;100.00
69630;BME280;56857;52.212;5.496;2023-02-19T04:54:00;101956.31;;;9.27;100.00
69630;BME280;56857;52.212;5.496;2023-02-19T04:56:26;101964.25;;;9.27;100.00
69630;BME280;56857;52.212;5.496;2023-02-19T04:58:51;101968.69;;;9.26;100.00
69630;BME280;56857;52.212;5.496;2023-02-19T05:01:16;101971.47;;;9.25;100.00
69630;BME280;56857;52.212;5.496;2023-02-19T05:03:42;101974.84;;;9.27;100.00
69630;BME280;56857;52.212;5.496;2023-02-19T05:06:10;101974.13;;;9.25;100.00
69630;BME280;56857;52.212;5.496;2023-02-19T05:08:36;101980.25;;;9.25;100.00
69630;BME280;56857;52.212;5.496;2023-02-19T05:11:04;101980.66;;;9.21;100.00
69630;BME280;56857;52.212;5.496;2023-02-19T05:13:30;101996.66;;;9.19;100.00
69630;BME280;56857;52.212;5.496;2023-02-19T05:16:21;101997.75;;;9.17;100.00
69630;BME280;56857;52.212;5.496;2023-02-19T05:18:47;101991.63;;;9.16;100.00
69630;BME280;56857;52.212;5.496;2023-02-19T05:21:13;102000.53;;;9.15;100.00
69630;BME280;56857;52.212;5.496;2023-02-19T05:23:38;102003.19;;;9.15;100.00
69630;BME280;56857;52.212;5.496;2023-02-19T05:26:05;102005.00;;;9.15;100.00
69630;BME280;56857;52.212;5.496;2023-02-19T05:28:31;102007.75;;;9.13;100.00
69630;BME280;56857;52.212;5.496;2023-02-19T05:30:56;102005.13;;;9.13;100.00
69630;BME280;56857;52.212;5.496;2023-02-19T05:33:24;102013.88;;;9.14;100.00
69630;BME280;56857;52.212;5.496;2023-02-19T05:35:51;102009.72;;;9.11;100.00
69630;BME280;56857;52.212;5.496;2023-02-19T05:38:20;102010.56;;;9.12;100.00
69630;BME280;56857;52.212;5.496;2023-02-19T05:40:46;102013.88;;;9.14;100.00
69630;BME280;56857;52.212;5.496;2023-02-19T05:43:12;102011.97;;;9.16;100.00
69630;BME280;56857;52.212;5.496;2023-02-19T05:45:38;102012.09;;;9.14;100.00
69630;BME280;56857;52.212;5.496;2023-02-19T05:48:06;102012.94;;;9.15;100.00
69630;BME280;56857;52.212;5.496;2023-02-19T05:50:33;102012.78;;;9.16;100.00
69630;BME280;56857;52.212;5.496;2023-02-19T05:52:59;102017.97;;;9.18;100.00
69630;BME280;56857;52.212;5.496;2023-02-19T05:55:25;102025.03;;;9.17;100.00
69630;BME280;56857;52.212;5.496;2023-02-19T05:57:50;102020.88;;;9.15;100.00
69630;BME280;56857;52.212;5.496;2023-02-19T06:00:17;102019.19;;;9.14;100.00
69630;BME280;56857;52.212;5.496;2023-02-19T06:02:44;102028.94;;;9.13;100.00
69630;BME280;56857;52.212;5.496;2023-02-19T06:05:09;102030.88;;;9.11;100.00
69630;BME280;56857;52.212;5.496;2023-02-19T06:07:35;102033.53;;;9.11;100.00
69630;BME280;56857;52.212;5.496;2023-02-19T06:10:01;102036.84;;;9.13;100.00
69630;BME280;56857;52.212;5.496;2023-02-19T06:12:26;102037.69;;;9.14;100.00
69630;BME280;56857;52.212;5.496;2023-02-19T06:14:52;102048.28;;;9.14;100.00
69630;BME280;56857;52.212;5.496;2023-02-19T06:17:17;102046.59;;;9.13;100.00
69630;BME280;56857;52.212;5.496;2023-02-19T06:19:43;102051.91;;;9.13;100.00
69630;BME280;56857;52.212;5.496;2023-02-19T06:22:08;102060.56;;;9.15;100.00
69630;BME280;56857;52.212;5.496;2023-02-19T06:24:34;102066.09;;;9.12;100.00
69630;BME280;56857;52.212;5.496;2023-02-19T06:26:59;102067.06;;;9.11;100.00
69630;BME280;56857;52.212;5.496;2023-02-19T06:29:24;102071.41;;;9.12;100.00
69630;BME280;56857;52.212;5.496;2023-02-19T06:31:50;102075.00;;;9.11;100.00
69630;BME280;56857;52.212;5.496;2023-02-19T06:34:16;102081.00;;;9.13;100.00
69630;BME280;56857;52.212;5.496;2023-02-19T06:36:41;102077.53;;;9.12;100.00
69630;BME280;56857;52.212;5.496;2023-02-19T06:39:06;102078.63;;;9.10;100.00
69630;BME280;56857;52.212;5.496;2023-02-19T06:41:32;102078.16;;;9.04;100.00
69630;BME280;56857;52.212;5.496;2023-02-19T06:43:57;102094.03;;;9.04;100.00
69630;BME280;56857;52.212;5.496;2023-02-19T06:46:23;102088.88;;;9.03;100.00
69630;BME280;56857;52.212;5.496;2023-02-19T06:48:48;102090.78;;;9.01;100.00
69630;BME280;56857;52.212;5.496;2023-02-19T06:51:16;102090.94;;;8.99;100.00
69630;BME280;56857;52.212;5.496;2023-02-19T06:53:42;102092.59;;;9.00;100.00
69630;BME280;56857;52.212;5.496;2023-02-19T06:56:29;102105.25;;;8.97;100.00
69630;BME280;56857;52.212;5.496;2023-02-19T06:58:57;102101.78;;;8.96;100.00
69630;BME280;56857;52.212;5.496;2023-02-19T07:01:23;102113.19;;;8.97;100.00
69630;BME280;56857;52.212;5.496;2023-02-19T07:03:48;102115.84;;;8.97;100.00
69630;BME280;56857;52.212;5.496;2023-02-19T07:06:14;102119.44;;;8.96;100.00
69630;BME280;56857;52.212;5.496;2023-02-19T07:08:39;102123.03;;;8.95;100.00
69630;BME280;56857;52.212;5.496;2023-02-19T07:11:05;102130.03;;;8.96;100.00
69630;BME280;56857;52.212;5.496;2023-02-19T07:13:30;102132.69;;;8.96;100.00
69630;BME280;56857;52.212;5.496;2023-02-19T07:16:04;102138.91;;;8.95;100.00
69630;BME280;56857;52.212;5.496;2023-02-19T07:18:31;102142.69;;;8.92;100.00
69630;BME280;56857;52.212;5.496;2023-02-19T07:21:08;102151.69;;;8.90;100.00
69630;BME280;56857;52.212;5.496;2023-02-19T07:23:34;102147.25;;;8.90;100.00
69630;BME280;56857;52.212;5.496;2023-02-19T07:26:00;102154.34;;;8.90;100.00
69630;BME280;56857;52.212;5.496;2023-02-19T07:28:26;102164.66;;;8.93;100.00
69630;BME280;56857;52.212;5.496;2023-02-19T07:30:59;102162.84;;;8.93;100.00
69630;BME280;56857;52.212;5.496;2023-02-19T07:33:24;102157.69;;;8.92;100.00
69630;BME280;56857;52.212;5.496;2023-02-19T07:35:50;102155.91;;;8.92;100.00
69630;BME280;56857;52.212;5.496;2023-02-19T07:38:19;102166.34;;;8.94;100.00
69630;BME280;56857;52.212;5.496;2023-02-19T07:40:55;102172.34;;;8.96;100.00
69630;BME280;56857;52.212;5.496;2023-02-19T07:43:22;102169.56;;;8.97;100.00
69630;BME280;56857;52.212;5.496;2023-02-19T07:45:48;102171.22;;;8.98;100.00
69630;BME280;56857;52.212;5.496;2023-02-19T07:48:13;102173.75;;;9.00;100.00
69630;BME280;56857;52.212;5.496;2023-02-19T07:50:39;102178.22;;;8.99;100.00
69630;BME280;56857;52.212;5.496;2023-02-19T07:53:04;102179.78;;;9.02;100.00
69630;BME280;56857;52.212;5.496;2023-02-19T07:56:09;102180.63;;;9.02;100.00
69630;BME280;56857;52.212;5.496;2023-02-19T07:58:43;102182.28;;;9.03;100.00
69630;BME280;56857;52.212;5.496;2023-02-19T08:01:13;102189.84;;;9.08;100.00
69630;BME280;56857;52.212;5.496;2023-02-19T08:03:38;102191.78;;;9.06;100.00
69630;BME280;56857;52.212;5.496;2023-02-19T08:06:04;102195.41;;;9.05;100.00
69630;BME280;56857;52.212;5.496;2023-02-19T08:08:29;102198.75;;;9.07;100.00
69630;BME280;56857;52.212;5.496;2023-02-19T08:10:58;102206.41;;;9.10;100.00
69630;BME280;56857;52.212;5.496;2023-02-19T08:13:25;102210.63;;;9.13;100.00
69630;BME280;56857;52.212;5.496;2023-02-19T08:15:51;102209.66;;;9.14;100.00
69630;BME280;56857;52.212;5.496;2023-02-19T08:18:20;102210.75;;;9.11;100.00
69630;BME280;56857;52.212;5.496;2023-02-19T08:20:46;102218.69;;;9.11;100.00
69630;BME280;56857;52.212;5.496;2023-02-19T08:23:12;102221.47;;;9.10;100.00
69630;BME280;56857;52.212;5.496;2023-02-19T08:25:39;102229.28;;;9.11;100.00
69630;BME280;56857;52.212;5.496;2023-02-19T08:28:05;102233.72;;;9.11;100.00
69630;BME280;56857;52.212;5.496;2023-02-19T08:30:31;102242.63;;;9.10;100.00
69630;BME280;56857;52.212;5.496;2023-02-19T08:32:58;102241.91;;;9.08;100.00
69630;BME280;56857;52.212;5.496;2023-02-19T08:35:24;102246.50;;;9.05;100.00
69630;BME280;56857;52.212;5.496;2023-02-19T08:37:50;102252.38;;;9.09;100.00
69630;BME280;56857;52.212;5.496;2023-02-19T08:40:15;102256.44;;;9.13;100.00
69630;BME280;56857;52.212;5.496;2023-02-19T08:42:40;102258.97;;;9.15;100.00
69630;BME280;56857;52.212;5.496;2023-02-19T08:45:06;102262.44;;;9.15;100.00
69630;BME280;56857;52.212;5.496;2023-02-19T08:47:34;102267.84;;;9.14;100.00
69630;BME280;56857;52.212;5.496;2023-02-19T08:49:59;102268.72;;;9.14;100.00
69630;BME280;56857;52.212;5.496;2023-02-19T08:52:25;102251.88;;;9.15;100.00
69630;BME280;56857;52.212;5.496;2023-02-19T08:54:50;102248.38;;;9.15;100.00
69630;BME280;56857;52.212;5.496;2023-02-19T08:57:15;102256.19;;;9.16;100.00
69630;BME280;56857;52.212;5.496;2023-02-19T08:59:41;102261.47;;;9.16;100.00
69630;BME280;56857;52.212;5.496;2023-02-19T09:02:08;102261.47;;;9.16;100.00
69630;BME280;56857;52.212;5.496;2023-02-19T09:04:33;102266.41;;;9.21;100.00
69630;BME280;56857;52.212;5.496;2023-02-19T09:06:58;102260.97;;;9.22;100.00
69630;BME280;56857;52.212;5.496;2023-02-19T09:09:24;102273.13;;;9.25;100.00
69630;BME280;56857;52.212;5.496;2023-02-19T09:11:49;102274.94;;;9.24;100.00
69630;BME280;56857;52.212;5.496;2023-02-19T09:14:14;102281.91;;;9.25;100.00
69630;BME280;56857;52.212;5.496;2023-02-19T09:16:39;102292.88;;;9.21;100.00
69630;BME280;56857;52.212;5.496;2023-02-19T09:19:05;102299.50;;;9.15;100.00
69630;BME280;56857;52.212;5.496;2023-02-19T09:21:30;102299.25;;;9.07;100.00
69630;BME280;56857;52.212;5.496;2023-02-19T09:23:55;102305.88;;;9.01;100.00
69630;BME280;56857;52.212;5.496;2023-02-19T09:26:21;102309.72;;;8.97;100.00
69630;BME280;56857;52.212;5.496;2023-02-19T09:28:46;102306.63;;;8.92;100.00
69630;BME280;56857;52.212;5.496;2023-02-19T09:31:13;102315.66;;;8.90;100.00
69630;BME280;56857;52.212;5.496;2023-02-19T09:33:43;102342.44;;;8.85;100.00
69630;BME280;56857;52.212;5.496;2023-02-19T09:36:08;102344.50;;;8.81;100.00
69630;BME280;56857;52.212;5.496;2023-02-19T09:38:34;102342.94;;;8.79;100.00
69630;BME280;56857;52.212;5.496;2023-02-19T09:41:05;102363.00;;;8.81;100.00
69630;BME280;56857;52.212;5.496;2023-02-19T09:43:31;102360.50;;;8.80;100.00
69630;BME280;56857;52.212;5.496;2023-02-19T09:46:02;102361.44;;;8.79;100.00
69630;BME280;56857;52.212;5.496;2023-02-19T09:48:31;102368.53;;;8.78;100.00
69630;BME280;56857;52.212;5.496;2023-02-19T09:50:58;102371.41;;;8.75;100.00
69630;BME280;56857;52.212;5.496;2023-02-19T09:53:26;102369.84;;;8.73;100.00
69630;BME280;56857;52.212;5.496;2023-02-19T09:55:53;102380.31;;;8.74;100.00
69630;BME280;56857;52.212;5.496;2023-02-19T10:00:48;102381.75;;;8.78;100.00
69630;BME280;56857;52.212;5.496;2023-02-19T10:03:38;102387.28;;;8.75;100.00
69630;BME280;56857;52.212;5.496;2023-02-19T10:06:13;102397.63;;;8.78;100.00
69630;BME280;56857;52.212;5.496;2023-02-19T10:08:41;102408.69;;;8.84;100.00
69630;BME280;56857;52.212;5.496;2023-02-19T10:11:10;102406.28;;;8.80;100.00
69630;BME280;56857;52.212;5.496;2023-02-19T10:13:45;102417.69;;;8.81;100.00
69630;BME280;56857;52.212;5.496;2023-02-19T10:16:18;102416.72;;;8.82;100.00
69630;BME280;56857;52.212;5.496;2023-02-19T10:18:44;102434.16;;;8.85;100.00
69630;BME280;56857;52.212;5.496;2023-02-19T10:21:22;102441.13;;;8.86;100.00
69630;BME280;56857;52.212;5.496;2023-02-19T10:23:52;102442.81;;;8.87;100.00
69630;BME280;56857;52.212;5.496;2023-02-19T10:26:18;102449.19;;;8.84;100.00
69630;BME280;56857;52.212;5.496;2023-02-19T10:28:44;102452.81;;;8.83;100.00
69630;BME280;56857;52.212;5.496;2023-02-19T10:31:21;102449.44;;;8.81;100.00
69630;BME280;56857;52.212;5.496;2023-02-19T10:33:49;102444.00;;;8.82;100.00
69630;BME280;56857;52.212;5.496;2023-02-19T10:36:24;102447.50;;;8.83;100.00
69630;BME280;56857;52.212;5.496;2023-02-19T10:38:50;102450.88;;;8.85;100.00
69630;BME280;56857;52.212;5.496;2023-02-19T10:41:18;102457.00;;;8.86;100.00
69630;BME280;56857;52.212;5.496;2023-02-19T10:46:25;102453.41;;;8.87;100.00
69630;BME280;56857;52.212;5.496;2023-02-19T10:48:54;102456.06;;;8.87;100.00
69630;BME280;56857;52.212;5.496;2023-02-19T10:54:15;102457.47;;;8.79;100.00
69630;BME280;56857;52.212;5.496;2023-02-19T10:56:42;102451.84;;;8.84;100.00
69630;BME280;56857;52.212;5.496;2023-02-19T10:59:26;102448.13;;;8.87;100.00
69630;BME280;56857;52.212;5.496;2023-02-19T11:02:08;102452.81;;;8.83;100.00
69630;BME280;56857;52.212;5.496;2023-02-19T11:04:40;102446.50;;;8.73;100.00
69630;BME280;56857;52.212;5.496;2023-02-19T11:09:37;102454.31;;;8.63;100.00
69630;BME280;56857;52.212;5.496;2023-02-19T11:12:03;102462.97;;;8.65;100.00
69630;BME280;56857;52.212;5.496;2023-02-19T11:14:31;102470.31;;;8.62;100.00
69630;BME280;56857;52.212;5.496;2023-02-19T11:16:59;102473.28;;;8.57;100.00
69630;BME280;56857;52.212;5.496;2023-02-19T11:21:52;102485.66;;;8.45;100.00
69630;BME280;56857;52.212;5.496;2023-02-19T11:24:33;102484.28;;;8.40;100.00
69630;BME280;56857;52.212;5.496;2023-02-19T11:27:03;102490.47;;;8.27;100.00
69630;BME280;56857;52.212;5.496;2023-02-19T11:29:30;102491.25;;;8.17;100.00
69630;BME280;56857;52.212;5.496;2023-02-19T11:32:24;102485.78;;;8.07;100.00
69630;BME280;56857;52.212;5.496;2023-02-19T11:34:48;102488.78;;;8.02;100.00
69630;BME280;56857;52.212;5.496;2023-02-19T11:37:15;102496.53;;;7.93;100.00
69630;BME280;56857;52.212;5.496;2023-02-19T11:39:44;102493.16;;;7.90;100.00
69630;BME280;56857;52.212;5.496;2023-02-19T11:58:50;102491.25;;;7.93;100.00
69630;BME280;56857;52.212;5.496;2023-02-19T12:07:48;102494.69;;;7.82;100.00
69630;BME280;56857;52.212;5.496;2023-02-19T12:10:10;102493.81;;;7.81;100.00
69630;BME280;56857;52.212;5.496;2023-02-19T12:37:29;102519.34;;;7.57;100.00
69630;BME280;56857;52.212;5.496;2023-02-19T12:40:48;102521.03;;;7.58;100.00
69630;BME280;56857;52.212;5.496;2023-02-19T12:43:20;102530.63;;;7.59;100.00
69630;BME280;56857;52.212;5.496;2023-02-19T12:48:34;102529.91;;;7.57;100.00
69630;BME280;56857;52.212;5.496;2023-02-19T12:51:09;102535.91;;;7.59;100.00
69630;BME280;56857;52.212;5.496;2023-02-19T12:56:15;102535.28;;;7.55;100.00
69630;BME280;56857;52.212;5.496;2023-02-19T12:58:45;102542.66;;;7.50;100.00
69630;BME280;56857;52.212;5.496;2023-02-19T13:01:17;102547.94;;;7.50;100.00
69630;BME280;56857;52.212;5.496;2023-02-19T13:03:50;102556.50;;;7.54;100.00
69630;BME280;56857;52.212;5.496;2023-02-19T13:06:32;102551.94;;;7.56;100.00
69630;BME280;56857;52.212;5.496;2023-02-19T13:09:13;102553.44;;;7.60;100.00
69630;BME280;56857;52.212;5.496;2023-02-19T13:11:53;102549.72;;;7.62;100.00
69630;BME280;56857;52.212;5.496;2023-02-19T13:17:06;102561.63;;;7.68;100.00
69630;BME280;56857;52.212;5.496;2023-02-19T13:19:39;102567.44;;;7.73;100.00
69630;BME280;56857;52.212;5.496;2023-02-19T13:22:18;102584.75;;;7.77;100.00
69630;BME280;56857;52.212;5.496;2023-02-19T13:24:46;102583.78;;;7.78;100.00
69630;BME280;56857;52.212;5.496;2023-02-19T13:31:07;102586.97;;;7.83;100.00
69630;BME280;56857;52.212;5.496;2023-02-19T13:33:32;102583.75;;;7.91;100.00
69630;BME280;56857;52.212;5.496;2023-02-19T13:36:24;102585.88;;;7.99;100.00
69630;BME280;56857;52.212;5.496;2023-02-19T13:38:50;102585.53;;;8.03;100.00
69630;BME280;56857;52.212;5.496;2023-02-19T13:41:38;102587.97;;;8.06;100.00
69630;BME280;56857;52.212;5.496;2023-02-19T13:44:16;102597.25;;;8.12;100.00
69630;BME280;56857;52.212;5.496;2023-02-19T13:46:43;102603.06;;;8.17;100.00
69630;BME280;56857;52.212;5.496;2023-02-19T13:51:53;102597.41;;;8.22;100.00
69630;BME280;56857;52.212;5.496;2023-02-19T13:54:32;102596.72;;;8.20;100.00
69630;BME280;56857;52.212;5.496;2023-02-19T13:59:52;102605.03;;;8.26;100.00
69630;BME280;56857;52.212;5.496;2023-02-19T14:02:27;102601.44;;;8.27;100.00
69630;BME280;56857;52.212;5.496;2023-02-19T14:05:05;102608.28;;;8.30;100.00
69630;BME280;56857;52.212;5.496;2023-02-19T14:07:51;102602.16;;;8.29;100.00
69630;BME280;56857;52.212;5.496;2023-02-19T14:19:11;102611.78;;;8.30;100.00
69630;BME280;56857;52.212;5.496;2023-02-19T14:21:39;102598.66;;;8.29;100.00
69630;BME280;56857;52.212;5.496;2023-02-19T14:24:10;102592.75;;;8.25;100.00
69630;BME280;56857;52.212;5.496;2023-02-19T14:26:36;102584.97;;;8.24;100.00
69630;BME280;56857;52.212;5.496;2023-02-19T14:29:06;102583.16;;;8.24;100.00
69630;BME280;56857;52.212;5.496;2023-02-19T14:31:38;102581.34;;;8.25;100.00
69630;BME280;56857;52.212;5.496;2023-02-19T14:34:27;102575.75;;;8.29;100.00
69630;BME280;56857;52.212;5.496;2023-02-19T14:36:54;102579.00;;;8.33;100.00
69630;BME280;56857;52.212;5.496;2023-02-19T14:39:28;102572.13;;;8.30;100.00
69630;BME280;56857;52.212;5.496;2023-02-19T14:41:59;102564.00;;;8.33;100.00
69630;BME280;56857;52.212;5.496;2023-02-19T14:44:28;102553.09;;;8.38;100.00
69630;BME280;56857;52.212;5.496;2023-02-19T14:49:57;102548.19;;;8.45;100.00
69630;BME280;56857;52.212;5.496;2023-02-19T14:52:29;102549.56;;;8.50;100.00
69630;BME280;56857;52.212;5.496;2023-02-19T14:55:00;102549.94;;;8.57;100.00
69630;BME280;56857;52.212;5.496;2023-02-19T14:57:40;102544.94;;;8.65;100.00